Time;durP1;ratioP1;P1;durP2;ratioP2;P2;SDS_P1;SDS_P2;PMS_P1;PMS_P2;Temp;Humidity;BMP_temperature;BMP_pressure;BME280_temperature;BME280_humidity;BME280_pressure;Samples;Min_cycle;Max_cycle;Signal;HPM_P1;HPM_P2
2022/08/16 00:00:18;;;;;;;8.43;3.20;;;;;;;22.86;58.63;98727.78;1770826;81;21045;-75
2022/08/16 00:02:45;;;;;;;6.97;2.33;;;;;;;22.85;58.74;98728.30;1770664;80;21068;-75
2022/08/16 00:05:12;;;;;;;11.95;3.02;;;;;;;22.84;58.85;98737.32;1770807;81;21164;-74
2022/08/16 00:07:38;;;;;;;3.92;2.50;;;;;;;22.82;58.29;98739.31;1770701;81;21065;-75
2022/08/16 00:10:07;;;;;;;5.55;2.72;;;;;;;22.83;57.87;98743.70;1770786;80;21076;-75
2022/08/16 00:12:33;;;;;;;8.30;3.42;;;;;;;22.86;57.70;98744.71;1770742;81;21080;-74
2022/08/16 00:15:04;;;;;;;3.83;2.58;;;;;;;22.87;57.38;98743.73;1770793;80;20954;-75
2022/08/16 00:17:31;;;;;;;8.58;2.58;;;;;;;22.88;57.24;98742.75;1770939;81;21151;-74
2022/08/16 00:19:57;;;;;;;6.05;3.37;;;;;;;22.91;57.02;98742.42;1770902;80;21028;-74
2022/08/16 00:22:24;;;;;;;9.08;2.52;;;;;;;22.96;56.66;98746.00;1770611;81;21064;-74
2022/08/16 00:24:50;;;;;;;6.47;2.70;;;;;;;23.00;56.70;98743.37;1770686;81;20993;-74
2022/08/16 00:27:16;;;;;;;8.83;3.25;;;;;;;23.02;56.50;98740.55;1770817;80;20998;-74
2022/08/16 00:29:43;;;;;;;8.05;2.60;;;;;;;23.05;55.70;98737.53;1772302;80;21559;-74
2022/08/16 00:32:10;;;;;;;6.03;2.62;;;;;;;23.10;55.76;98743.31;1778816;80;21092;-75
2022/08/16 00:34:36;;;;;;;9.75;2.98;;;;;;;23.12;55.52;98740.84;1725951;82;21074;-74
2022/08/16 00:37:03;;;;;;;9.95;2.47;;;;;;;23.14;55.27;98746.89;1726185;83;21502;-74
2022/08/16 00:39:30;;;;;;;5.70;2.67;;;;;;;23.17;55.22;98750.62;1758224;81;21647;-75
2022/08/16 00:41:57;;;;;;;13.05;2.80;;;;;;;23.18;55.10;98752.31;1758316;81;21113;-74
2022/08/16 00:44:23;;;;;;;15.32;2.90;;;;;;;23.21;54.73;98751.16;1758702;81;21059;-75
2022/08/16 00:47:07;;;;;;;10.65;2.62;;;;;;;23.25;54.57;98741.81;1757976;81;21174;-74
2022/08/16 00:49:34;;;;;;;9.53;3.05;;;;;;;23.29;54.50;98748.55;1758414;81;21063;-74
2022/08/16 00:52:01;;;;;;;12.70;2.80;;;;;;;23.34;54.37;98745.41;1758190;81;21103;-74
2022/08/16 00:54:29;;;;;;;8.53;3.20;;;;;;;23.35;54.35;98747.08;1758164;81;21151;-74
2022/08/16 00:56:57;;;;;;;9.25;3.02;;;;;;;23.39;54.17;98742.28;1758369;81;21017;-74
2022/08/16 00:59:24;;;;;;;12.18;2.87;;;;;;;23.41;54.15;98740.27;1758637;81;21540;-75
2022/08/16 01:01:51;;;;;;;9.15;3.05;;;;;;;23.43;54.20;98745.81;1758044;81;21055;-75
2022/08/16 01:04:21;;;;;;;13.08;2.77;;;;;;;23.45;54.12;98745.66;1758169;81;21056;-74
2022/08/16 01:06:48;;;;;;;8.45;2.52;;;;;;;23.47;54.00;98745.00;1758520;81;21134;-73
2022/08/16 01:09:16;;;;;;;5.97;2.83;;;;;;;23.50;53.95;98752.75;1757876;81;21076;-75
2022/08/16 01:11:43;;;;;;;9.38;2.80;;;;;;;23.51;54.10;98758.48;1758519;81;21040;-74
2022/08/16 01:14:15;;;;;;;6.90;2.85;;;;;;;23.53;54.55;98773.93;1758355;81;21059;-75
2022/08/16 01:16:42;;;;;;;4.47;2.75;;;;;;;23.52;55.11;98765.55;1758354;81;21040;-74
2022/08/16 01:19:20;;;;;;;8.58;3.02;;;;;;;23.50;56.11;98753.63;1758339;81;21083;-74
2022/08/16 01:21:58;;;;;;;10.10;2.70;;;;;;;23.49;56.72;98759.14;1757972;81;20936;-74
2022/08/16 01:24:43;;;;;;;9.15;3.27;;;;;;;23.44;57.58;98756.91;1758130;81;21139;-74
2022/08/16 01:27:21;;;;;;;10.65;2.83;;;;;;;23.40;58.66;98764.08;1729330;81;21095;-74
2022/08/16 01:30:09;;;;;;;5.20;3.12;;;;;;;23.32;59.47;98781.80;1752417;81;21055;-74
2022/08/16 01:32:37;;;;;;;11.95;3.00;;;;;;;23.24;60.26;98784.91;1750194;82;21077;-73
2022/08/16 01:35:08;;;;;;;12.18;3.00;;;;;;;23.17;61.20;98774.77;1749820;82;21020;-74
2022/08/16 01:37:43;;;;;;;8.20;3.20;;;;;;;23.13;62.33;98788.63;1750144;82;21139;-73
2022/08/16 01:40:12;;;;;;;14.35;3.30;;;;;;;23.08;63.50;98776.17;1754439;80;21109;-74
2022/08/16 01:42:38;;;;;;;10.65;3.87;;;;;;;22.95;64.16;98772.50;1735590;82;21080;-73
2022/08/16 01:45:06;;;;;;;3.67;2.83;;;;;;;22.85;64.76;98759.61;1724987;82;21771;-73
2022/08/16 01:47:33;;;;;;;9.35;3.50;;;;;;;22.77;65.19;98759.03;1727176;83;21646;-73
2022/08/16 01:49:59;;;;;;;9.05;3.92;;;;;;;22.73;66.25;98766.55;1727604;83;22016;-74
2022/08/16 01:52:26;;;;;;;6.53;3.12;;;;;;;22.65;66.54;98758.39;1727223;83;21054;-74
2022/08/16 01:54:57;;;;;;;6.80;3.10;;;;;;;22.59;67.15;98754.48;1726602;83;21071;-74
2022/08/16 01:57:24;;;;;;;9.30;3.45;;;;;;;22.55;68.19;98746.38;1727084;83;21268;-73
2022/08/16 01:59:52;;;;;;;10.13;3.85;;;;;;;22.49;68.34;98753.66;1727055;83;21553;-74
2022/08/16 02:02:18;;;;;;;10.68;3.50;;;;;;;22.44;69.22;98750.58;1727362;83;22256;-76
2022/08/16 02:04:45;;;;;;;6.20;3.50;;;;;;;22.36;69.25;98749.13;1727190;83;21624;-75
2022/08/16 02:07:12;;;;;;;7.05;3.20;;;;;;;22.33;70.03;98740.06;1727679;83;21569;-74
2022/08/16 02:09:39;;;;;;;9.60;3.80;;;;;;;22.28;70.28;98744.99;1727041;83;22355;-74
2022/08/16 02:12:07;;;;;;;5.83;3.58;;;;;;;22.22;70.68;98737.86;1727176;83;21548;-74
2022/08/16 02:14:35;;;;;;;8.80;3.45;;;;;;;22.16;70.82;98738.47;1727266;83;21155;-73
2022/08/16 02:17:06;;;;;;;8.93;3.70;;;;;;;22.11;70.75;98729.16;1727475;83;21019;-74
2022/08/16 02:19:35;;;;;;;15.25;3.35;;;;;;;22.05;70.89;98737.29;1727131;83;21509;-75
2022/08/16 02:22:01;;;;;;;9.03;3.30;;;;;;;22.00;70.17;98738.23;1727345;83;21868;-73
2022/08/16 02:24:28;;;;;;;5.58;2.90;;;;;;;21.96;69.84;98738.17;1726840;83;21572;-74
2022/08/16 02:26:55;;;;;;;4.05;3.08;;;;;;;21.92;69.46;98724.70;1727494;83;21090;-75
2022/08/16 02:29:22;;;;;;;7.12;3.10;;;;;;;21.88;69.06;98729.01;1727078;83;21553;-74
2022/08/16 02:31:49;;;;;;;8.45;3.22;;;;;;;21.85;69.06;98713.23;1742687;81;20985;-74
2022/08/16 02:34:18;;;;;;;9.20;3.25;;;;;;;21.82;68.77;98719.38;1746845;81;21817;-74
2022/08/16 02:36:45;;;;;;;8.75;3.52;;;;;;;21.78;68.69;98714.80;1747105;81;21064;-74
2022/08/16 02:39:13;;;;;;;11.18;3.52;;;;;;;21.72;68.73;98704.69;1746864;82;21119;-74
2022/08/16 02:41:41;;;;;;;6.87;3.12;;;;;;;21.69;68.86;98703.63;1746821;82;21021;-74
2022/08/16 02:44:10;;;;;;;4.80;3.10;;;;;;;21.65;68.83;98703.55;1747071;82;21142;-74
2022/08/16 02:46:36;;;;;;;9.23;3.33;;;;;;;21.63;68.95;98705.54;1746797;81;21124;-74
2022/08/16 02:49:04;;;;;;;4.83;3.40;;;;;;;21.61;69.02;98704.84;1746959;80;21020;-74
2022/08/16 02:51:31;;;;;;;6.78;3.40;;;;;;;21.60;68.99;98701.80;1747045;82;21303;-74
2022/08/16 02:53:58;;;;;;;8.20;3.50;;;;;;;21.58;68.85;98705.96;1747125;82;21036;-75
2022/08/16 02:56:25;;;;;;;8.78;3.00;;;;;;;21.57;68.93;98706.09;1747397;81;21001;-75
2022/08/16 02:58:52;;;;;;;5.58;3.33;;;;;;;21.52;68.90;98703.38;1747089;81;21119;-75
2022/08/16 03:01:22;;;;;;;8.43;3.55;;;;;;;21.50;69.00;98701.34;1747106;82;21107;-74
2022/08/16 03:03:48;;;;;;;9.55;3.50;;;;;;;21.49;69.08;98700.98;1747089;82;21550;-74
2022/08/16 03:06:19;;;;;;;6.33;3.45;;;;;;;21.49;69.11;98703.66;1747280;81;21504;-74
2022/08/16 03:08:48;;;;;;;7.42;3.30;;;;;;;21.48;69.10;98689.91;1747414;82;21080;-74
2022/08/16 03:11:17;;;;;;;11.90;3.40;;;;;;;21.45;69.16;98690.19;1721803;82;21350;-74
2022/08/16 03:13:46;;;;;;;7.85;3.60;;;;;;;21.44;69.03;98696.52;1746873;82;21092;-73
2022/08/16 03:16:12;;;;;;;11.78;3.35;;;;;;;21.43;68.98;98697.49;1747341;82;21060;-74
2022/08/16 03:18:40;;;;;;;5.50;3.30;;;;;;;21.42;68.91;98694.48;1747125;82;21662;-75
2022/08/16 03:21:07;;;;;;;18.65;3.87;;;;;;;21.40;68.92;98689.77;1747088;82;21503;-75
2022/08/16 03:23:34;;;;;;;11.50;4.17;;;;;;;21.39;68.90;98689.91;1747234;80;21871;-74
2022/08/16 03:26:01;;;;;;;11.40;3.30;;;;;;;21.38;68.77;98694.40;1747331;82;21700;-75
2022/08/16 03:28:28;;;;;;;7.95;3.45;;;;;;;21.39;68.72;98687.23;1746939;82;21520;-75
2022/08/16 03:30:54;;;;;;;5.47;3.27;;;;;;;21.40;68.63;98687.57;1752476;81;21553;-75
2022/08/16 03:33:21;;;;;;;7.42;3.62;;;;;;;21.42;68.59;98692.31;1766265;81;21558;-74
2022/08/16 03:35:49;;;;;;;7.47;3.72;;;;;;;21.42;68.39;98682.95;1760479;81;21120;-75
2022/08/16 03:38:20;;;;;;;5.97;3.30;;;;;;;21.43;68.45;98692.64;1792004;79;21140;-74
2022/08/16 03:40:48;;;;;;;8.58;3.40;;;;;;;21.43;68.21;98690.80;1793893;80;21069;-75
2022/08/16 03:43:15;;;;;;;13.60;3.92;;;;;;;21.43;67.97;98681.44;1789121;80;20998;-75
2022/08/16 03:45:42;;;;;;;4.42;3.40;;;;;;;21.45;67.93;98682.16;1793951;80;20994;-75
2022/08/16 03:48:09;;;;;;;7.83;3.40;;;;;;;21.46;68.00;98678.48;1782485;80;21095;-75
2022/08/16 03:50:36;;;;;;;8.80;3.45;;;;;;;21.48;67.87;98684.55;1716995;83;21147;-74
2022/08/16 03:53:03;;;;;;;10.10;3.50;;;;;;;21.49;68.06;98694.28;1766998;81;21053;-74
2022/08/16 03:55:30;;;;;;;9.15;3.62;;;;;;;21.50;68.00;98685.28;1717446;83;21090;-74
2022/08/16 03:57:57;;;;;;;8.90;3.33;;;;;;;21.52;68.17;98686.48;1717155;83;21581;-74
2022/08/16 04:00:27;;;;;;;8.65;3.60;;;;;;;21.54;68.03;98692.53;1767421;80;21474;-76
2022/08/16 04:02:56;;;;;;;9.85;4.37;;;;;;;21.56;67.87;98688.38;1766767;81;21145;-74
2022/08/16 04:05:23;;;;;;;9.38;3.65;;;;;;;21.58;68.05;98694.42;1716901;83;21043;-74
2022/08/16 04:07:50;;;;;;;11.18;3.67;;;;;;;21.59;68.07;98698.80;1717270;83;21035;-74
2022/08/16 04:10:16;;;;;;;6.90;4.05;;;;;;;21.59;67.94;98696.95;1767040;81;20983;-74
2022/08/16 04:12:44;;;;;;;5.70;3.75;;;;;;;21.61;68.12;98690.13;1717264;83;21755;-75
2022/08/16 04:15:12;;;;;;;11.40;3.70;;;;;;;21.60;68.33;98692.44;1716698;83;21058;-74
2022/08/16 04:17:41;;;;;;;7.45;3.33;;;;;;;21.62;68.38;98691.79;1766952;80;21065;-74
2022/08/16 04:20:08;;;;;;;6.55;3.55;;;;;;;21.64;68.48;98692.52;1766998;81;21058;-75
2022/08/16 04:22:36;;;;;;;6.62;3.50;;;;;;;21.64;68.34;98689.84;1767308;80;20998;-75
2022/08/16 04:25:05;;;;;;;5.35;3.60;;;;;;;21.64;68.36;98684.48;1727554;83;21699;-74
2022/08/16 04:27:34;;;;;;;9.05;4.62;;;;;;;21.65;68.44;98683.00;1727045;83;21094;-75
2022/08/16 04:30:01;;;;;;;7.55;4.22;;;;;;;21.67;68.62;98681.49;1748456;82;21106;-75
2022/08/16 04:32:28;;;;;;;9.10;3.70;;;;;;;21.67;68.83;98678.81;1758022;81;21127;-75
2022/08/16 04:34:55;;;;;;;7.55;3.72;;;;;;;21.68;68.98;98675.16;1783255;80;21423;-75
2022/08/16 04:37:22;;;;;;;10.03;3.92;;;;;;;21.71;68.79;98678.39;1750400;81;21561;-75
2022/08/16 04:39:50;;;;;;;7.42;3.62;;;;;;;21.75;68.69;98674.09;1768732;81;21572;-74
2022/08/16 04:42:17;;;;;;;10.28;4.20;;;;;;;21.77;68.58;98675.65;1761166;81;21574;-75
2022/08/16 04:44:45;;;;;;;9.73;3.90;;;;;;;21.82;68.17;98684.09;1761158;81;21028;-74
2022/08/16 04:47:12;;;;;;;12.25;3.83;;;;;;;21.86;68.23;98677.44;1761504;81;21056;-75
2022/08/16 04:49:38;;;;;;;8.40;3.80;;;;;;;21.91;67.93;98684.20;1761067;81;21506;-75
2022/08/16 04:52:05;;;;;;;6.80;4.15;;;;;;;21.96;67.99;98684.61;1731113;81;20989;-76
2022/08/16 04:54:32;;;;;;;7.30;4.05;;;;;;;21.98;68.36;98690.16;1760899;81;21241;-75
2022/08/16 04:56:58;;;;;;;9.35;3.90;;;;;;;22.01;67.98;98698.41;1761292;81;21104;-74
2022/08/16 04:59:25;;;;;;;6.97;3.42;;;;;;;22.02;68.08;98706.77;1761166;81;21012;-74
2022/08/16 05:01:55;;;;;;;6.03;4.03;;;;;;;22.05;68.31;98699.79;1761350;81;21309;-75
2022/08/16 05:04:20;;;;;;;10.75;4.03;;;;;;;22.08;68.52;98706.20;1761025;81;21514;-75
2022/08/16 05:06:48;;;;;;;5.78;3.65;;;;;;;22.09;68.60;98702.55;1761261;81;21059;-74
2022/08/16 05:09:19;;;;;;;5.67;3.60;;;;;;;22.10;68.86;98708.73;1760295;81;21059;-74
2022/08/16 05:11:46;;;;;;;14.85;4.30;;;;;;;22.11;69.01;98709.06;1761120;81;21072;-75
2022/08/16 05:14:13;;;;;;;13.20;4.28;;;;;;;22.11;69.11;98715.29;1731174;81;21123;-74
2022/08/16 05:16:39;;;;;;;11.20;3.95;;;;;;;22.10;69.14;98713.59;1731045;81;21053;-74
2022/08/16 05:19:08;;;;;;;10.68;3.87;;;;;;;22.10;69.37;98702.04;1760985;81;21070;-75
2022/08/16 05:21:37;;;;;;;9.85;3.72;;;;;;;22.11;69.50;98704.58;1761140;81;21783;-74
2022/08/16 05:24:06;;;;;;;7.22;3.80;;;;;;;22.14;69.55;98698.06;1761619;81;21020;-75
2022/08/16 05:26:34;;;;;;;8.80;3.87;;;;;;;22.16;69.51;98711.67;1761064;81;22360;-74
2022/08/16 05:29:02;;;;;;;10.50;4.62;;;;;;;22.18;69.21;98712.87;1761505;81;21084;-75
2022/08/16 05:31:29;;;;;;;9.65;4.30;;;;;;;22.20;69.21;98717.07;1760040;81;21139;-75
2022/08/16 05:34:00;;;;;;;14.50;4.30;;;;;;;22.25;69.12;98720.16;1757595;81;21095;-74
2022/08/16 05:36:27;;;;;;;8.25;3.92;;;;;;;22.31;69.06;98723.27;1757687;81;21103;-75
2022/08/16 05:38:53;;;;;;;11.70;3.90;;;;;;;22.32;68.58;98733.00;1757042;81;21216;-74
2022/08/16 05:41:20;;;;;;;14.95;4.40;;;;;;;22.36;68.41;98726.34;1757622;81;21430;-75
2022/08/16 05:43:47;;;;;;;7.80;3.60;;;;;;;22.39;68.26;98726.05;1757131;81;21863;-75
2022/08/16 05:46:17;;;;;;;12.82;4.05;;;;;;;22.44;68.32;98745.22;1761050;80;21138;-74
2022/08/16 05:48:43;;;;;;;10.85;3.95;;;;;;;22.49;68.32;98742.09;1756770;81;21042;-75
2022/08/16 05:51:12;;;;;;;12.50;4.30;;;;;;;22.51;68.13;98745.00;1757140;81;21982;-74
2022/08/16 05:53:39;;;;;;;8.20;3.12;;;;;;;22.53;67.81;98743.00;1756825;81;21542;-74
2022/08/16 05:56:10;;;;;;;10.90;3.80;;;;;;;22.57;67.68;98739.52;1756861;81;21141;-75
2022/08/16 05:58:39;;;;;;;5.75;3.62;;;;;;;22.58;67.55;98742.06;1757251;81;21074;-75
2022/08/16 06:01:06;;;;;;;12.33;3.92;;;;;;;22.62;67.05;98739.92;1756965;81;21577;-75
2022/08/16 06:03:32;;;;;;;5.60;3.72;;;;;;;22.65;67.04;98742.30;1757152;81;21044;-75
2022/08/16 06:06:04;;;;;;;9.98;3.72;;;;;;;22.70;67.09;98748.57;1756258;81;21137;-74
2022/08/16 06:08:31;;;;;;;9.58;4.00;;;;;;;22.73;67.19;98746.91;1757039;81;21095;-75
2022/08/16 06:10:58;;;;;;;9.00;3.90;;;;;;;22.79;66.85;98751.68;1757045;81;21030;-75
2022/08/16 06:13:25;;;;;;;5.47;3.77;;;;;;;22.84;66.32;98742.69;1756629;81;22245;-75
2022/08/16 06:15:53;;;;;;;9.08;3.75;;;;;;;22.88;66.25;98744.09;1756868;81;21501;-75
2022/08/16 06:18:19;;;;;;;10.75;3.87;;;;;;;22.90;66.17;98739.41;1756750;81;21596;-74
2022/08/16 06:20:46;;;;;;;8.65;3.60;;;;;;;22.93;65.53;98748.98;1757024;81;21676;-74
2022/08/16 06:23:15;;;;;;;8.88;3.72;;;;;;;22.92;65.46;98744.13;1756307;81;21050;-75
2022/08/16 06:25:43;;;;;;;7.72;4.03;;;;;;;22.91;65.26;98743.77;1754961;81;21598;-75
2022/08/16 06:28:11;;;;;;;14.85;4.25;;;;;;;22.90;65.24;98748.80;1756972;81;21581;-76
2022/08/16 06:30:38;;;;;;;19.37;4.70;;;;;;;22.88;64.84;98753.95;1722949;81;21008;-74
2022/08/16 06:33:05;;;;;;;31.23;6.55;;;;;;;22.82;65.38;98787.59;1756931;81;21333;-74
2022/08/16 06:35:31;;;;;;;13.62;5.20;;;;;;;22.73;70.16;98793.36;1756669;81;21125;-74
2022/08/16 06:37:58;;;;;;;17.92;5.22;;;;;;;22.58;70.42;98790.82;1756986;81;22044;-74
2022/08/16 06:40:25;;;;;;;9.63;4.65;;;;;;;22.45;70.95;98797.84;1756794;81;21076;-73
2022/08/16 06:42:52;;;;;;;10.75;4.72;;;;;;;22.32;71.81;98814.74;1722891;81;22190;-74
2022/08/16 06:45:39;;;;;;;7.53;4.03;;;;;;;22.23;72.26;98818.61;1720299;81;21324;-73
2022/08/16 06:48:08;;;;;;;8.60;4.33;;;;;;;22.15;72.63;98821.66;1756597;81;20995;-73
2022/08/16 06:50:36;;;;;;;6.75;4.05;;;;;;;22.10;73.43;98822.09;1756736;81;21089;-73
2022/08/16 06:53:05;;;;;;;11.75;4.58;;;;;;;22.05;73.84;98829.20;1756530;81;22495;-73
2022/08/16 06:55:33;;;;;;;11.25;4.62;;;;;;;22.01;74.68;98834.52;1756952;81;21050;-74
2022/08/16 06:58:00;;;;;;;12.73;5.05;;;;;;;22.01;75.40;98848.41;1756881;81;21052;-73
2022/08/16 07:00:28;;;;;;;16.05;4.60;;;;;;;22.02;75.87;98847.41;1756837;81;20991;-73
2022/08/16 07:02:59;;;;;;;11.53;4.80;;;;;;;22.06;76.25;98851.50;1756565;81;21065;-74
2022/08/16 07:05:29;;;;;;;9.45;4.78;;;;;;;22.07;76.65;98863.42;1756607;81;21118;-74
2022/08/16 07:08:03;;;;;;;13.08;4.87;;;;;;;22.06;76.76;98867.58;1750358;81;20983;-74
2022/08/16 07:10:28;;;;;;;11.48;4.87;;;;;;;22.06;76.94;98863.56;1756593;81;21173;-73
2022/08/16 07:12:55;;;;;;;14.45;5.45;;;;;;;22.02;76.94;98862.14;1756582;81;21066;-74
2022/08/16 07:15:22;;;;;;;13.93;5.25;;;;;;;21.99;77.17;98871.79;1756790;81;21125;-75
2022/08/16 07:17:49;;;;;;;18.15;5.60;;;;;;;21.91;77.25;98866.32;1756862;81;21987;-74
2022/08/16 07:20:16;;;;;;;21.02;6.22;;;;;;;21.83;77.72;98867.84;1722894;81;20995;-75
2022/08/16 07:22:44;;;;;;;13.60;5.75;;;;;;;21.75;78.24;98881.09;1754699;81;21066;-74
2022/08/16 07:25:15;;;;;;;20.15;6.08;;;;;;;21.65;78.73;98880.24;1756446;81;21563;-74
2022/08/16 07:27:42;;;;;;;14.70;6.10;;;;;;;21.56;81.08;98889.13;1756993;81;21554;-75
2022/08/16 07:30:12;;;;;;;16.37;5.85;;;;;;;21.46;81.21;98887.23;1756823;81;22242;-74
2022/08/16 07:32:39;;;;;;;12.50;5.72;;;;;;;21.38;80.98;98893.76;1756860;81;21342;-73
2022/08/16 07:35:06;;;;;;;14.07;5.70;;;;;;;21.33;81.15;98891.52;1757157;81;21154;-73
2022/08/16 07:37:33;;;;;;;14.80;6.45;;;;;;;21.32;81.11;98891.66;1759250;80;21691;-74
2022/08/16 07:40:05;;;;;;;13.50;6.00;;;;;;;21.31;81.73;98896.64;1764373;81;21023;-75
2022/08/16 07:42:32;;;;;;;12.45;5.12;;;;;;;21.27;81.42;98889.88;1815157;79;21072;-75
2022/08/16 07:44:58;;;;;;;11.22;4.62;;;;;;;21.22;82.03;98889.44;1810600;79;21064;-73
2022/08/16 07:47:25;;;;;;;12.65;6.08;;;;;;;21.19;82.58;98898.58;1807991;79;21146;-73
2022/08/16 07:49:52;;;;;;;7.22;5.37;;;;;;;21.19;82.76;98900.41;1807608;79;21498;-73
2022/08/16 07:52:19;;;;;;;9.85;4.53;;;;;;;21.18;83.06;98899.55;1807584;79;21511;-74
2022/08/16 07:54:46;;;;;;;9.85;4.58;;;;;;;21.17;82.94;98895.20;1807597;79;21695;-73
2022/08/16 07:57:13;;;;;;;4.80;3.22;;;;;;;21.15;83.10;98901.18;1807610;79;20984;-74
2022/08/16 07:59:42;;;;;;;6.78;3.02;;;;;;;21.11;82.83;98898.41;1807674;79;21093;-73
2022/08/16 08:02:09;;;;;;;8.43;3.30;;;;;;;21.03;82.89;98901.77;1807579;79;21070;-73
2022/08/16 08:04:36;;;;;;;8.10;2.80;;;;;;;21.00;82.97;98904.71;1807979;79;21019;-74
2022/08/16 08:07:03;;;;;;;9.33;3.00;;;;;;;20.97;83.09;98895.61;1807594;79;21072;-74
2022/08/16 08:09:30;;;;;;;8.65;3.00;;;;;;;20.98;83.83;98894.64;1807320;79;21515;-73
2022/08/16 08:11:56;;;;;;;7.22;2.98;;;;;;;20.97;83.63;98885.75;1807772;79;21062;-73
2022/08/16 08:14:23;;;;;;;7.42;3.02;;;;;;;20.96;83.57;98884.55;1807365;79;21073;-73
2022/08/16 08:16:51;;;;;;;6.15;3.02;;;;;;;20.96;83.72;98880.06;1807715;79;21089;-73
2022/08/16 08:19:19;;;;;;;6.15;2.62;;;;;;;20.98;83.79;98869.23;1806390;79;21112;-74
2022/08/16 08:21:46;;;;;;;7.20;2.98;;;;;;;20.98;83.59;98874.59;1807216;79;21059;-75
2022/08/16 08:24:14;;;;;;;7.25;2.75;;;;;;;20.95;83.77;98878.86;1807300;79;20968;-73
2022/08/16 08:26:41;;;;;;;4.50;2.45;;;;;;;20.96;84.35;98880.53;1807486;79;21593;-74
2022/08/16 08:29:08;;;;;;;10.20;3.15;;;;;;;20.99;84.43;98883.45;1807969;79;21086;-73
2022/08/16 08:31:35;;;;;;;5.15;2.52;;;;;;;21.00;84.54;98888.66;1807436;79;21211;-73
2022/08/16 08:34:04;;;;;;;7.17;2.70;;;;;;;21.01;84.33;98880.14;1802186;79;21102;-74
2022/08/16 08:36:31;;;;;;;6.12;2.85;;;;;;;21.01;84.76;98879.64;1801772;79;21652;-73
2022/08/16 08:39:00;;;;;;;7.35;2.95;;;;;;;21.00;84.69;98883.78;1801882;79;21035;-73
2022/08/16 08:41:28;;;;;;;6.78;2.60;;;;;;;21.02;84.75;98882.68;1802140;79;21090;-74
2022/08/16 08:43:55;;;;;;;7.53;2.72;;;;;;;21.02;84.84;98875.99;1801373;79;21149;-74
2022/08/16 08:46:23;;;;;;;6.28;3.10;;;;;;;21.02;84.80;98881.84;1802185;79;20965;-73
2022/08/16 08:48:54;;;;;;;7.90;3.10;;;;;;;21.02;85.08;98877.83;1801806;79;21051;-74
2022/08/16 08:51:21;;;;;;;8.13;3.12;;;;;;;21.01;85.24;98879.64;1801927;79;21149;-73
2022/08/16 08:53:52;;;;;;;7.30;3.20;;;;;;;21.02;85.28;98884.02;1801740;79;20980;-73
2022/08/16 08:56:19;;;;;;;8.20;3.58;;;;;;;21.03;85.38;98881.71;1801960;79;21179;-73
2022/08/16 08:58:47;;;;;;;10.63;3.75;;;;;;;21.04;85.70;98878.03;1801842;79;21063;-73
2022/08/16 09:01:22;;;;;;;6.60;3.42;;;;;;;21.02;86.03;98873.32;1801167;79;21194;-73
2022/08/16 09:03:51;;;;;;;9.53;3.85;;;;;;;21.02;86.28;98879.17;1757043;79;21086;-74
2022/08/16 09:06:17;;;;;;;9.00;4.12;;;;;;;21.03;86.48;98882.18;1801970;79;20964;-73
2022/08/16 09:08:44;;;;;;;6.72;3.42;;;;;;;21.03;86.53;98892.41;1802009;79;21547;-74
2022/08/16 09:11:12;;;;;;;5.58;2.70;;;;;;;21.01;86.54;98889.50;1801809;79;21548;-73
2022/08/16 09:13:39;;;;;;;4.35;2.47;;;;;;;21.00;85.95;98895.81;1801841;79;21121;-74
2022/08/16 09:16:07;;;;;;;5.60;2.62;;;;;;;20.95;85.97;98899.75;1801696;79;21073;-74
2022/08/16 09:18:35;;;;;;;6.22;2.85;;;;;;;20.88;86.15;98906.62;1802181;79;21066;-73
2022/08/16 09:21:05;;;;;;;7.37;2.90;;;;;;;20.84;86.48;98911.87;1801590;79;22179;-74
2022/08/16 09:23:34;;;;;;;7.62;3.40;;;;;;;20.84;86.79;98912.38;1801645;79;21035;-73
2022/08/16 09:26:03;;;;;;;3.72;3.08;;;;;;;20.86;86.77;98917.09;1802208;79;21039;-73
2022/08/16 09:28:29;;;;;;;5.10;3.55;;;;;;;20.89;86.99;98915.48;1801644;79;20983;-73
2022/08/16 09:30:58;;;;;;;5.90;4.17;;;;;;;20.92;87.45;98920.08;1801079;79;21467;-74
2022/08/16 09:33:24;;;;;;;6.70;3.60;;;;;;;21.00;87.93;98912.73;1804531;79;21080;-74
2022/08/16 09:35:51;;;;;;;5.78;3.58;;;;;;;21.13;88.12;98917.83;1807659;79;21039;-73
2022/08/16 09:38:17;;;;;;;5.03;3.15;;;;;;;21.23;87.90;98916.53;1812053;79;21119;-73
2022/08/16 09:40:49;;;;;;;4.72;3.60;;;;;;;21.30;87.58;98917.20;1812392;78;21052;-74
2022/08/16 09:43:17;;;;;;;6.97;4.00;;;;;;;21.37;87.69;98917.51;1811630;79;21354;-75
2022/08/16 09:45:43;;;;;;;6.20;3.50;;;;;;;21.49;87.89;98912.41;1812547;79;21099;-76
2022/08/16 09:48:10;;;;;;;4.28;3.27;;;;;;;21.62;87.67;98915.31;1821125;78;21051;-74
2022/08/16 09:50:38;;;;;;;8.75;3.80;;;;;;;21.74;87.60;98928.95;1790462;80;21066;-73
2022/08/16 09:53:09;;;;;;;7.95;4.45;;;;;;;21.85;87.06;98936.00;1784899;80;21669;-75
2022/08/16 09:55:35;;;;;;;8.15;4.05;;;;;;;21.92;86.13;98926.92;1791163;80;21001;-74
2022/08/16 09:58:03;;;;;;;8.78;4.20;;;;;;;22.05;86.83;98924.81;1791066;80;21726;-75
2022/08/16 10:00:29;;;;;;;6.75;3.65;;;;;;;22.18;86.75;98917.84;1790936;80;21652;-74
2022/08/16 10:02:57;;;;;;;6.05;3.83;;;;;;;22.28;86.35;98922.72;1790970;80;21589;-74
2022/08/16 10:05:23;;;;;;;7.35;3.77;;;;;;;22.37;85.35;98923.70;1791248;80;20997;-74
2022/08/16 10:07:51;;;;;;;8.45;3.83;;;;;;;22.39;84.00;98921.71;1791057;80;21468;-74
2022/08/16 10:10:20;;;;;;;4.12;3.72;;;;;;;22.39;83.29;98913.67;1791041;80;21798;-75
2022/08/16 10:15:32;;;;;;;9.13;5.00;;;;;;;22.45;82.89;98911.27;1791099;80;21028;-74
2022/08/16 10:17:59;;;;;;;6.58;5.15;;;;;;;22.47;82.49;98920.50;1790897;80;21142;-74
2022/08/16 10:20:26;;;;;;;6.55;4.78;;;;;;;22.49;82.35;98914.50;1791523;80;21147;-75
2022/08/16 10:22:54;;;;;;;7.62;4.40;;;;;;;22.51;82.04;98908.99;1790947;80;22308;-75
2022/08/16 10:25:20;;;;;;;7.62;4.60;;;;;;;22.54;81.90;98901.50;1791153;80;21459;-75
2022/08/16 10:27:47;;;;;;;8.15;5.10;;;;;;;22.57;82.11;98911.94;1791370;79;21586;-75
2022/08/16 10:30:15;;;;;;;9.10;4.83;;;;;;;22.65;82.44;98907.21;1791074;80;21546;-75
2022/08/16 10:32:41;;;;;;;11.93;4.37;;;;;;;22.76;82.37;98910.20;1790669;80;21135;-74
2022/08/16 10:35:08;;;;;;;8.10;3.80;;;;;;;22.82;81.20;98914.48;1782442;80;21784;-75
2022/08/16 10:37:35;;;;;;;5.33;3.92;;;;;;;22.86;81.08;98913.69;1783104;80;21516;-74
2022/08/16 10:40:01;;;;;;;7.37;4.03;;;;;;;22.88;80.72;98921.13;1782654;80;21610;-75
2022/08/16 10:42:28;;;;;;;4.60;3.80;;;;;;;22.86;80.14;98924.92;1782989;80;21481;-74
2022/08/16 10:44:54;;;;;;;10.10;4.08;;;;;;;22.82;80.02;98923.04;1783171;80;21055;-74
2022/08/16 10:47:21;;;;;;;7.65;3.92;;;;;;;22.77;79.61;98932.02;1782898;80;21099;-74
2022/08/16 10:49:48;;;;;;;9.93;4.30;;;;;;;22.67;79.70;98948.63;1783180;80;21178;-74
2022/08/16 10:52:15;;;;;;;5.12;4.03;;;;;;;22.57;79.81;98956.18;1782878;80;21100;-74
2022/08/16 10:54:42;;;;;;;8.10;3.92;;;;;;;22.49;79.85;98954.70;1782980;80;21028;-74
2022/08/16 10:57:09;;;;;;;8.08;4.00;;;;;;;22.40;80.30;98960.44;1782612;80;20984;-75
2022/08/16 10:59:35;;;;;;;7.17;4.22;;;;;;;22.31;80.64;98969.81;1782612;80;21066;-74
2022/08/16 11:02:02;;;;;;;6.20;3.72;;;;;;;22.22;81.36;98971.48;1782493;80;21068;-74
2022/08/16 11:04:29;;;;;;;6.75;4.08;;;;;;;22.19;81.88;98977.98;1782733;80;21580;-75
2022/08/16 11:06:55;;;;;;;6.67;3.70;;;;;;;22.16;81.99;98976.92;1782641;80;21068;-75
2022/08/16 11:09:22;;;;;;;6.53;4.25;;;;;;;22.17;82.46;98970.56;1782521;80;21067;-75
2022/08/16 11:11:49;;;;;;;6.22;3.72;;;;;;;22.17;82.83;98967.88;1782462;80;21082;-74
2022/08/16 11:14:17;;;;;;;6.78;3.77;;;;;;;22.20;83.01;98971.63;1782832;80;21112;-76
2022/08/16 11:16:44;;;;;;;5.90;3.80;;;;;;;22.24;82.86;98974.86;1782863;80;21051;-74
2022/08/16 11:19:10;;;;;;;7.92;4.33;;;;;;;22.32;83.13;98966.16;1783233;80;21138;-74
2022/08/16 11:21:37;;;;;;;10.88;4.10;;;;;;;22.38;83.32;98967.78;1783054;80;21095;-74
2022/08/16 11:24:04;;;;;;;7.00;4.42;;;;;;;22.47;83.05;98969.27;1782927;80;21087;-75
2022/08/16 11:26:31;;;;;;;8.63;4.37;;;;;;;22.53;83.42;98970.88;1782934;80;21060;-74
2022/08/16 11:28:57;;;;;;;6.53;4.33;;;;;;;22.61;82.82;98972.34;1783038;79;21032;-75
2022/08/16 11:31:24;;;;;;;7.35;4.40;;;;;;;22.69;82.40;98970.78;1782743;80;21115;-75
2022/08/16 11:33:50;;;;;;;7.58;4.55;;;;;;;22.75;81.95;98964.34;1782743;80;21107;-74
2022/08/16 11:36:18;;;;;;;6.70;4.08;;;;;;;22.81;81.65;98961.56;1782904;79;21135;-75